sensor_id;sensor_type;location;lat;lon;timestamp;P1;durP1;ratioP1;P2;durP2;ratioP2
66012;SDS011;52783;50.502;8.190;2023-07-24T00:01:02;7.70;;;2.53;;
66012;SDS011;52783;50.502;8.190;2023-07-24T00:03:27;8.23;;;2.75;;
66012;SDS011;52783;50.502;8.190;2023-07-24T00:05:53;7.93;;;2.20;;
66012;SDS011;52783;50.502;8.190;2023-07-24T00:08:22;3.75;;;2.05;;
66012;SDS011;52783;50.502;8.190;2023-07-24T00:10:47;3.15;;;2.10;;
66012;SDS011;52783;50.502;8.190;2023-07-24T00:13:13;6.60;;;2.63;;
66012;SDS011;52783;50.502;8.190;2023-07-24T00:15:38;7.22;;;2.50;;
66012;SDS011;52783;50.502;8.190;2023-07-24T00:18:04;7.47;;;2.47;;
66012;SDS011;52783;50.502;8.190;2023-07-24T00:20:30;2.60;;;2.40;;
66012;SDS011;52783;50.502;8.190;2023-07-24T00:22:55;5.25;;;2.50;;
66012;SDS011;52783;50.502;8.190;2023-07-24T00:25:21;2.60;;;2.38;;
66012;SDS011;52783;50.502;8.190;2023-07-24T00:27:46;2.55;;;2.20;;
66012;SDS011;52783;50.502;8.190;2023-07-24T00:30:12;3.13;;;2.50;;
66012;SDS011;52783;50.502;8.190;2023-07-24T00:32:37;3.40;;;2.30;;
66012;SDS011;52783;50.502;8.190;2023-07-24T00:35:03;2.85;;;2.47;;
66012;SDS011;52783;50.502;8.190;2023-07-24T00:37:29;3.63;;;2.53;;
66012;SDS011;52783;50.502;8.190;2023-07-24T00:39:54;2.95;;;2.20;;
66012;SDS011;52783;50.502;8.190;2023-07-24T00:42:20;3.53;;;2.10;;
66012;SDS011;52783;50.502;8.190;2023-07-24T00:44:45;6.75;;;2.30;;
66012;SDS011;52783;50.502;8.190;2023-07-24T00:47:11;4.05;;;2.55;;
66012;SDS011;52783;50.502;8.190;2023-07-24T00:49:36;6.22;;;2.58;;
66012;SDS011;52783;50.502;8.190;2023-07-24T00:52:02;3.33;;;2.70;;
66012;SDS011;52783;50.502;8.190;2023-07-24T00:54:28;3.47;;;2.40;;
66012;SDS011;52783;50.502;8.190;2023-07-24T00:56:57;3.72;;;2.00;;
66012;SDS011;52783;50.502;8.190;2023-07-24T00:59:23;2.55;;;2.30;;
66012;SDS011;52783;50.502;8.190;2023-07-24T01:01:48;3.40;;;2.38;;
66012;SDS011;52783;50.502;8.190;2023-07-24T01:04:14;3.75;;;2.45;;
66012;SDS011;52783;50.502;8.190;2023-07-24T01:06:40;2.60;;;2.15;;
66012;SDS011;52783;50.502;8.190;2023-07-24T01:09:05;3.05;;;2.10;;
66012;SDS011;52783;50.502;8.190;2023-07-24T01:11:36;4.63;;;2.28;;
66012;SDS011;52783;50.502;8.190;2023-07-24T01:14:10;3.03;;;2.42;;
66012;SDS011;52783;50.502;8.190;2023-07-24T01:16:43;3.33;;;2.10;;
66012;SDS011;52783;50.502;8.190;2023-07-24T01:21:58;2.30;;;2.10;;
66012;SDS011;52783;50.502;8.190;2023-07-24T01:24:34;3.15;;;2.33;;
66012;SDS011;52783;50.502;8.190;2023-07-24T01:27:07;3.20;;;2.00;;
66012;SDS011;52783;50.502;8.190;2023-07-24T01:29:32;8.68;;;2.38;;
66012;SDS011;52783;50.502;8.190;2023-07-24T01:31:58;4.50;;;2.30;;
66012;SDS011;52783;50.502;8.190;2023-07-24T01:34:23;3.33;;;2.10;;
66012;SDS011;52783;50.502;8.190;2023-07-24T01:36:49;2.00;;;1.90;;
66012;SDS011;52783;50.502;8.190;2023-07-24T01:39:15;5.07;;;2.40;;
66012;SDS011;52783;50.502;8.190;2023-07-24T01:41:41;5.57;;;2.00;;
66012;SDS011;52783;50.502;8.190;2023-07-24T01:44:08;3.33;;;2.00;;
66012;SDS011;52783;50.502;8.190;2023-07-24T01:46:37;2.38;;;1.77;;
66012;SDS011;52783;50.502;8.190;2023-07-24T01:49:03;2.70;;;2.13;;
66012;SDS011;52783;50.502;8.190;2023-07-24T01:51:28;1.67;;;1.58;;
66012;SDS011;52783;50.502;8.190;2023-07-24T01:53:54;4.10;;;2.05;;
66012;SDS011;52783;50.502;8.190;2023-07-24T01:56:19;2.08;;;1.70;;
66012;SDS011;52783;50.502;8.190;2023-07-24T01:58:45;2.10;;;1.90;;
66012;SDS011;52783;50.502;8.190;2023-07-24T02:01:10;2.13;;;2.03;;
66012;SDS011;52783;50.502;8.190;2023-07-24T02:03:36;2.25;;;1.88;;
66012;SDS011;52783;50.502;8.190;2023-07-24T02:06:01;3.08;;;2.15;;
66012;SDS011;52783;50.502;8.190;2023-07-24T02:08:27;3.60;;;2.20;;
66012;SDS011;52783;50.502;8.190;2023-07-24T02:10:52;4.38;;;2.00;;
66012;SDS011;52783;50.502;8.190;2023-07-24T02:13:18;2.47;;;2.20;;
66012;SDS011;52783;50.502;8.190;2023-07-24T02:15:43;2.88;;;2.30;;
66012;SDS011;52783;50.502;8.190;2023-07-24T02:18:09;3.83;;;2.20;;
66012;SDS011;52783;50.502;8.190;2023-07-24T02:20:34;5.50;;;2.38;;
66012;SDS011;52783;50.502;8.190;2023-07-24T02:23:00;4.43;;;2.15;;
66012;SDS011;52783;50.502;8.190;2023-07-24T02:25:25;5.05;;;1.95;;
66012;SDS011;52783;50.502;8.190;2023-07-24T02:27:51;6.40;;;1.85;;
66012;SDS011;52783;50.502;8.190;2023-07-24T02:30:16;2.13;;;2.03;;
66012;SDS011;52783;50.502;8.190;2023-07-24T02:32:42;5.40;;;2.28;;
66012;SDS011;52783;50.502;8.190;2023-07-24T02:35:07;2.53;;;2.28;;
66012;SDS011;52783;50.502;8.190;2023-07-24T02:37:33;3.97;;;2.30;;
66012;SDS011;52783;50.502;8.190;2023-07-24T02:39:58;2.90;;;2.28;;
66012;SDS011;52783;50.502;8.190;2023-07-24T02:42:24;3.80;;;2.45;;
66012;SDS011;52783;50.502;8.190;2023-07-24T02:44:49;3.13;;;2.40;;
66012;SDS011;52783;50.502;8.190;2023-07-24T02:47:15;2.50;;;2.28;;
66012;SDS011;52783;50.502;8.190;2023-07-24T02:49:40;2.83;;;2.22;;
66012;SDS011;52783;50.502;8.190;2023-07-24T02:52:06;5.93;;;2.70;;
66012;SDS011;52783;50.502;8.190;2023-07-24T02:54:31;5.43;;;2.70;;
66012;SDS011;52783;50.502;8.190;2023-07-24T02:56:57;4.30;;;2.38;;
66012;SDS011;52783;50.502;8.190;2023-07-24T02:59:23;3.97;;;2.33;;
66012;SDS011;52783;50.502;8.190;2023-07-24T03:01:48;3.15;;;2.33;;
66012;SDS011;52783;50.502;8.190;2023-07-24T03:04:14;2.65;;;2.40;;
66012;SDS011;52783;50.502;8.190;2023-07-24T03:06:39;3.30;;;2.58;;
66012;SDS011;52783;50.502;8.190;2023-07-24T03:09:05;9.13;;;2.38;;
66012;SDS011;52783;50.502;8.190;2023-07-24T03:11:31;2.97;;;2.38;;
66012;SDS011;52783;50.502;8.190;2023-07-24T03:13:56;6.70;;;2.60;;
66012;SDS011;52783;50.502;8.190;2023-07-24T03:16:22;7.43;;;2.30;;
66012;SDS011;52783;50.502;8.190;2023-07-24T03:18:47;3.97;;;2.30;;
66012;SDS011;52783;50.502;8.190;2023-07-24T03:21:13;5.10;;;2.20;;
66012;SDS011;52783;50.502;8.190;2023-07-24T03:23:38;4.63;;;2.45;;
66012;SDS011;52783;50.502;8.190;2023-07-24T03:26:04;3.80;;;2.65;;
66012;SDS011;52783;50.502;8.190;2023-07-24T03:28:29;3.00;;;2.67;;
66012;SDS011;52783;50.502;8.190;2023-07-24T03:30:55;9.77;;;2.90;;
66012;SDS011;52783;50.502;8.190;2023-07-24T03:33:21;9.73;;;2.78;;
66012;SDS011;52783;50.502;8.190;2023-07-24T03:35:46;7.82;;;2.55;;
66012;SDS011;52783;50.502;8.190;2023-07-24T03:38:12;5.80;;;2.47;;
66012;SDS011;52783;50.502;8.190;2023-07-24T03:40:37;6.55;;;2.65;;
66012;SDS011;52783;50.502;8.190;2023-07-24T03:43:03;3.10;;;2.50;;
66012;SDS011;52783;50.502;8.190;2023-07-24T03:45:28;12.55;;;3.63;;
66012;SDS011;52783;50.502;8.190;2023-07-24T03:47:54;4.47;;;2.50;;
66012;SDS011;52783;50.502;8.190;2023-07-24T03:50:19;3.83;;;2.53;;
66012;SDS011;52783;50.502;8.190;2023-07-24T03:52:45;7.07;;;2.50;;
66012;SDS011;52783;50.502;8.190;2023-07-24T03:55:10;5.07;;;2.88;;
66012;SDS011;52783;50.502;8.190;2023-07-24T03:57:36;6.38;;;2.70;;
66012;SDS011;52783;50.502;8.190;2023-07-24T04:00:02;7.18;;;2.70;;
66012;SDS011;52783;50.502;8.190;2023-07-24T04:02:28;6.40;;;2.80;;
66012;SDS011;52783;50.502;8.190;2023-07-24T04:04:53;4.70;;;2.67;;
66012;SDS011;52783;50.502;8.190;2023-07-24T04:07:19;6.10;;;3.03;;
66012;SDS011;52783;50.502;8.190;2023-07-24T04:09:44;5.00;;;2.80;;
66012;SDS011;52783;50.502;8.190;2023-07-24T04:12:10;3.58;;;2.42;;
66012;SDS011;52783;50.502;8.190;2023-07-24T04:14:35;4.80;;;2.65;;
66012;SDS011;52783;50.502;8.190;2023-07-24T04:17:01;3.63;;;2.75;;
66012;SDS011;52783;50.502;8.190;2023-07-24T04:19:26;5.30;;;2.97;;
66012;SDS011;52783;50.502;8.190;2023-07-24T04:21:52;9.25;;;3.00;;
66012;SDS011;52783;50.502;8.190;2023-07-24T04:24:17;10.02;;;3.10;;
66012;SDS011;52783;50.502;8.190;2023-07-24T04:26:43;3.30;;;2.80;;
66012;SDS011;52783;50.502;8.190;2023-07-24T04:29:08;6.75;;;3.45;;
66012;SDS011;52783;50.502;8.190;2023-07-24T04:31:34;3.38;;;2.65;;
66012;SDS011;52783;50.502;8.190;2023-07-24T04:34:00;6.82;;;2.83;;
66012;SDS011;52783;50.502;8.190;2023-07-24T04:36:25;4.97;;;2.78;;
66012;SDS011;52783;50.502;8.190;2023-07-24T04:38:51;12.82;;;2.97;;
66012;SDS011;52783;50.502;8.190;2023-07-24T04:41:16;5.95;;;2.70;;
66012;SDS011;52783;50.502;8.190;2023-07-24T04:43:42;9.90;;;2.83;;
66012;SDS011;52783;50.502;8.190;2023-07-24T04:46:07;5.28;;;2.85;;
66012;SDS011;52783;50.502;8.190;2023-07-24T04:48:33;3.95;;;2.72;;
66012;SDS011;52783;50.502;8.190;2023-07-24T04:50:58;4.10;;;2.72;;
66012;SDS011;52783;50.502;8.190;2023-07-24T04:53:24;3.70;;;2.42;;
66012;SDS011;52783;50.502;8.190;2023-07-24T04:55:49;4.85;;;2.47;;
66012;SDS011;52783;50.502;8.190;2023-07-24T04:58:15;3.25;;;2.75;;
66012;SDS011;52783;50.502;8.190;2023-07-24T05:00:40;3.50;;;2.75;;
66012;SDS011;52783;50.502;8.190;2023-07-24T05:03:06;3.08;;;2.65;;
66012;SDS011;52783;50.502;8.190;2023-07-24T05:05:35;3.10;;;2.60;;
66012;SDS011;52783;50.502;8.190;2023-07-24T05:08:04;4.00;;;2.88;;
66012;SDS011;52783;50.502;8.190;2023-07-24T05:10:34;5.00;;;2.90;;
66012;SDS011;52783;50.502;8.190;2023-07-24T05:13:00;4.60;;;3.20;;
66012;SDS011;52783;50.502;8.190;2023-07-24T05:15:26;7.32;;;3.22;;
66012;SDS011;52783;50.502;8.190;2023-07-24T05:17:51;4.00;;;3.10;;
66012;SDS011;52783;50.502;8.190;2023-07-24T05:20:17;3.85;;;2.88;;
66012;SDS011;52783;50.502;8.190;2023-07-24T05:22:42;10.75;;;3.00;;
66012;SDS011;52783;50.502;8.190;2023-07-24T05:25:08;5.90;;;2.75;;
66012;SDS011;52783;50.502;8.190;2023-07-24T05:27:33;3.08;;;2.78;;
66012;SDS011;52783;50.502;8.190;2023-07-24T05:29:59;4.68;;;3.05;;
66012;SDS011;52783;50.502;8.190;2023-07-24T05:32:24;5.13;;;2.83;;
66012;SDS011;52783;50.502;8.190;2023-07-24T05:34:50;6.80;;;3.30;;
66012;SDS011;52783;50.502;8.190;2023-07-24T05:37:15;6.85;;;2.70;;
66012;SDS011;52783;50.502;8.190;2023-07-24T05:39:41;8.45;;;3.10;;
66012;SDS011;52783;50.502;8.190;2023-07-24T05:42:07;4.65;;;2.63;;
66012;SDS011;52783;50.502;8.190;2023-07-24T05:44:32;7.75;;;2.97;;
66012;SDS011;52783;50.502;8.190;2023-07-24T05:46:58;10.43;;;2.95;;
66012;SDS011;52783;50.502;8.190;2023-07-24T05:49:23;3.70;;;2.65;;
66012;SDS011;52783;50.502;8.190;2023-07-24T05:51:49;7.82;;;3.17;;
66012;SDS011;52783;50.502;8.190;2023-07-24T05:54:14;9.85;;;2.88;;
66012;SDS011;52783;50.502;8.190;2023-07-24T05:56:40;7.03;;;3.20;;
66012;SDS011;52783;50.502;8.190;2023-07-24T05:59:05;4.75;;;3.00;;
66012;SDS011;52783;50.502;8.190;2023-07-24T06:01:31;4.47;;;2.65;;
66012;SDS011;52783;50.502;8.190;2023-07-24T06:03:56;7.55;;;3.50;;
66012;SDS011;52783;50.502;8.190;2023-07-24T06:06:22;7.78;;;2.70;;
66012;SDS011;52783;50.502;8.190;2023-07-24T06:08:47;11.20;;;2.95;;
66012;SDS011;52783;50.502;8.190;2023-07-24T06:11:13;8.57;;;3.20;;
66012;SDS011;52783;50.502;8.190;2023-07-24T06:13:38;8.25;;;3.20;;
66012;SDS011;52783;50.502;8.190;2023-07-24T06:16:04;6.20;;;3.25;;
66012;SDS011;52783;50.502;8.190;2023-07-24T06:18:32;6.43;;;3.38;;
66012;SDS011;52783;50.502;8.190;2023-07-24T06:20:58;7.28;;;3.55;;
66012;SDS011;52783;50.502;8.190;2023-07-24T06:23:23;8.02;;;3.30;;
66012;SDS011;52783;50.502;8.190;2023-07-24T06:25:49;10.50;;;3.72;;
66012;SDS011;52783;50.502;8.190;2023-07-24T06:28:16;7.80;;;3.17;;
66012;SDS011;52783;50.502;8.190;2023-07-24T06:30:42;7.18;;;3.20;;
66012;SDS011;52783;50.502;8.190;2023-07-24T06:33:07;4.93;;;2.90;;
66012;SDS011;52783;50.502;8.190;2023-07-24T06:35:33;7.10;;;3.28;;
66012;SDS011;52783;50.502;8.190;2023-07-24T06:37:58;7.68;;;3.40;;
66012;SDS011;52783;50.502;8.190;2023-07-24T06:40:24;6.10;;;3.05;;
66012;SDS011;52783;50.502;8.190;2023-07-24T06:42:49;4.78;;;2.83;;
66012;SDS011;52783;50.502;8.190;2023-07-24T06:45:15;5.07;;;3.47;;
66012;SDS011;52783;50.502;8.190;2023-07-24T06:47:40;7.10;;;3.55;;
66012;SDS011;52783;50.502;8.190;2023-07-24T06:50:06;13.98;;;3.47;;
66012;SDS011;52783;50.502;8.190;2023-07-24T06:52:32;9.13;;;3.75;;
66012;SDS011;52783;50.502;8.190;2023-07-24T06:54:58;11.48;;;3.40;;
66012;SDS011;52783;50.502;8.190;2023-07-24T06:57:24;11.90;;;3.35;;
66012;SDS011;52783;50.502;8.190;2023-07-24T06:59:49;8.85;;;3.50;;
66012;SDS011;52783;50.502;8.190;2023-07-24T07:02:15;15.48;;;3.40;;
66012;SDS011;52783;50.502;8.190;2023-07-24T07:04:41;6.93;;;3.42;;
66012;SDS011;52783;50.502;8.190;2023-07-24T07:07:06;6.28;;;3.45;;
66012;SDS011;52783;50.502;8.190;2023-07-24T07:09:32;6.15;;;3.70;;
66012;SDS011;52783;50.502;8.190;2023-07-24T07:11:57;5.47;;;3.40;;
66012;SDS011;52783;50.502;8.190;2023-07-24T07:14:23;5.20;;;3.60;;
66012;SDS011;52783;50.502;8.190;2023-07-24T07:16:49;9.85;;;3.50;;
66012;SDS011;52783;50.502;8.190;2023-07-24T07:19:14;6.55;;;3.40;;
66012;SDS011;52783;50.502;8.190;2023-07-24T07:21:40;7.35;;;3.67;;
66012;SDS011;52783;50.502;8.190;2023-07-24T07:24:05;4.45;;;3.55;;
66012;SDS011;52783;50.502;8.190;2023-07-24T07:26:31;5.90;;;3.60;;
66012;SDS011;52783;50.502;8.190;2023-07-24T07:28:57;6.00;;;3.35;;
66012;SDS011;52783;50.502;8.190;2023-07-24T07:31:22;8.60;;;3.03;;
66012;SDS011;52783;50.502;8.190;2023-07-24T07:33:48;4.07;;;3.15;;
66012;SDS011;52783;50.502;8.190;2023-07-24T07:36:13;6.57;;;3.50;;
66012;SDS011;52783;50.502;8.190;2023-07-24T07:38:39;4.55;;;3.20;;
66012;SDS011;52783;50.502;8.190;2023-07-24T07:41:05;5.88;;;3.53;;
66012;SDS011;52783;50.502;8.190;2023-07-24T07:43:31;6.95;;;3.38;;
66012;SDS011;52783;50.502;8.190;2023-07-24T07:45:57;9.43;;;3.95;;
66012;SDS011;52783;50.502;8.190;2023-07-24T07:48:24;9.90;;;3.92;;
66012;SDS011;52783;50.502;8.190;2023-07-24T07:50:50;12.98;;;3.83;;
66012;SDS011;52783;50.502;8.190;2023-07-24T07:53:16;9.65;;;3.53;;
66012;SDS011;52783;50.502;8.190;2023-07-24T07:55:42;7.38;;;3.45;;
66012;SDS011;52783;50.502;8.190;2023-07-24T07:58:07;8.48;;;3.65;;
66012;SDS011;52783;50.502;8.190;2023-07-24T08:00:34;10.43;;;3.83;;
66012;SDS011;52783;50.502;8.190;2023-07-24T08:02:59;8.82;;;3.80;;
66012;SDS011;52783;50.502;8.190;2023-07-24T08:05:25;6.32;;;3.78;;
66012;SDS011;52783;50.502;8.190;2023-07-24T08:07:50;11.75;;;3.60;;
66012;SDS011;52783;50.502;8.190;2023-07-24T08:10:16;13.20;;;3.78;;
66012;SDS011;52783;50.502;8.190;2023-07-24T08:12:42;5.68;;;3.55;;
66012;SDS011;52783;50.502;8.190;2023-07-24T08:15:08;6.05;;;3.28;;
66012;SDS011;52783;50.502;8.190;2023-07-24T08:17:34;14.02;;;4.00;;
66012;SDS011;52783;50.502;8.190;2023-07-24T08:19:59;10.05;;;3.88;;
66012;SDS011;52783;50.502;8.190;2023-07-24T08:22:25;6.85;;;3.65;;
66012;SDS011;52783;50.502;8.190;2023-07-24T08:24:50;6.63;;;3.95;;
66012;SDS011;52783;50.502;8.190;2023-07-24T08:27:16;15.27;;;3.60;;
66012;SDS011;52783;50.502;8.190;2023-07-24T08:29:42;8.13;;;3.70;;
66012;SDS011;52783;50.502;8.190;2023-07-24T08:32:08;5.53;;;3.67;;
66012;SDS011;52783;50.502;8.190;2023-07-24T08:34:33;8.30;;;3.58;;
66012;SDS011;52783;50.502;8.190;2023-07-24T08:36:59;7.93;;;3.92;;
66012;SDS011;52783;50.502;8.190;2023-07-24T08:39:24;16.70;;;3.88;;
66012;SDS011;52783;50.502;8.190;2023-07-24T08:41:50;7.18;;;3.90;;
66012;SDS011;52783;50.502;8.190;2023-07-24T08:44:15;9.15;;;3.80;;
66012;SDS011;52783;50.502;8.190;2023-07-24T08:46:41;6.32;;;3.45;;
66012;SDS011;52783;50.502;8.190;2023-07-24T08:49:11;8.07;;;3.88;;
66012;SDS011;52783;50.502;8.190;2023-07-24T08:51:37;6.55;;;3.85;;
66012;SDS011;52783;50.502;8.190;2023-07-24T08:54:05;6.20;;;3.92;;
66012;SDS011;52783;50.502;8.190;2023-07-24T08:56:30;11.05;;;4.10;;
66012;SDS011;52783;50.502;8.190;2023-07-24T08:58:56;13.65;;;3.63;;
66012;SDS011;52783;50.502;8.190;2023-07-24T09:01:22;5.28;;;3.65;;
66012;SDS011;52783;50.502;8.190;2023-07-24T09:03:47;7.78;;;4.40;;
66012;SDS011;52783;50.502;8.190;2023-07-24T09:06:13;8.57;;;3.72;;
66012;SDS011;52783;50.502;8.190;2023-07-24T09:08:39;8.65;;;3.95;;
66012;SDS011;52783;50.502;8.190;2023-07-24T09:11:06;7.28;;;3.83;;
66012;SDS011;52783;50.502;8.190;2023-07-24T09:13:34;7.30;;;3.90;;
66012;SDS011;52783;50.502;8.190;2023-07-24T09:16:01;7.03;;;3.65;;
66012;SDS011;52783;50.502;8.190;2023-07-24T09:18:26;4.45;;;3.40;;
66012;SDS011;52783;50.502;8.190;2023-07-24T09:21:03;5.10;;;3.42;;
66012;SDS011;52783;50.502;8.190;2023-07-24T09:23:28;8.90;;;3.45;;
66012;SDS011;52783;50.502;8.190;2023-07-24T09:25:54;9.93;;;3.42;;
66012;SDS011;52783;50.502;8.190;2023-07-24T09:28:19;6.20;;;3.58;;
66012;SDS011;52783;50.502;8.190;2023-07-24T09:30:52;3.95;;;3.40;;
66012;SDS011;52783;50.502;8.190;2023-07-24T09:33:23;6.80;;;3.83;;
66012;SDS011;52783;50.502;8.190;2023-07-24T09:35:59;6.35;;;3.28;;
66012;SDS011;52783;50.502;8.190;2023-07-24T09:38:25;4.95;;;3.35;;
66012;SDS011;52783;50.502;8.190;2023-07-24T09:40:51;3.40;;;3.00;;
66012;SDS011;52783;50.502;8.190;2023-07-24T09:43:21;3.33;;;2.78;;
66012;SDS011;52783;50.502;8.190;2023-07-24T09:45:49;5.57;;;3.22;;
66012;SDS011;52783;50.502;8.190;2023-07-24T09:48:16;6.45;;;3.28;;
66012;SDS011;52783;50.502;8.190;2023-07-24T09:50:44;4.05;;;3.00;;
66012;SDS011;52783;50.502;8.190;2023-07-24T09:53:12;5.57;;;3.50;;
66012;SDS011;52783;50.502;8.190;2023-07-24T09:56:03;4.07;;;3.20;;
66012;SDS011;52783;50.502;8.190;2023-07-24T09:58:31;4.75;;;3.28;;
66012;SDS011;52783;50.502;8.190;2023-07-24T10:00:59;5.40;;;3.65;;
66012;SDS011;52783;50.502;8.190;2023-07-24T10:03:28;4.20;;;3.38;;
66012;SDS011;52783;50.502;8.190;2023-07-24T10:05:54;5.10;;;3.47;;
66012;SDS011;52783;50.502;8.190;2023-07-24T10:08:19;4.28;;;3.28;;
66012;SDS011;52783;50.502;8.190;2023-07-24T10:10:45;4.20;;;3.20;;
66012;SDS011;52783;50.502;8.190;2023-07-24T10:13:12;6.55;;;3.45;;
66012;SDS011;52783;50.502;8.190;2023-07-24T10:15:43;4.55;;;3.22;;
66012;SDS011;52783;50.502;8.190;2023-07-24T10:18:10;4.80;;;3.27;;
66012;SDS011;52783;50.502;8.190;2023-07-24T10:20:36;4.38;;;3.30;;
66012;SDS011;52783;50.502;8.190;2023-07-24T10:23:04;4.70;;;3.00;;
66012;SDS011;52783;50.502;8.190;2023-07-24T10:25:34;5.30;;;3.30;;
66012;SDS011;52783;50.502;8.190;2023-07-24T10:28:06;5.00;;;3.63;;
66012;SDS011;52783;50.502;8.190;2023-07-24T10:30:36;7.05;;;3.38;;
66012;SDS011;52783;50.502;8.190;2023-07-24T10:33:12;5.57;;;3.42;;
66012;SDS011;52783;50.502;8.190;2023-07-24T10:35:43;6.35;;;3.65;;
66012;SDS011;52783;50.502;8.190;2023-07-24T10:38:14;9.27;;;4.05;;
66012;SDS011;52783;50.502;8.190;2023-07-24T10:40:41;7.30;;;3.60;;
66012;SDS011;52783;50.502;8.190;2023-07-24T10:43:18;8.70;;;3.88;;
66012;SDS011;52783;50.502;8.190;2023-07-24T10:45:49;5.25;;;3.75;;
66012;SDS011;52783;50.502;8.190;2023-07-24T10:48:18;5.72;;;3.80;;
66012;SDS011;52783;50.502;8.190;2023-07-24T10:50:45;5.50;;;3.60;;
66012;SDS011;52783;50.502;8.190;2023-07-24T10:53:16;5.88;;;3.58;;
66012;SDS011;52783;50.502;8.190;2023-07-24T10:55:43;6.93;;;3.80;;
66012;SDS011;52783;50.502;8.190;2023-07-24T10:58:10;4.85;;;3.70;;
66012;SDS011;52783;50.502;8.190;2023-07-24T11:00:38;5.65;;;3.70;;
66012;SDS011;52783;50.502;8.190;2023-07-24T11:03:11;12.27;;;3.60;;
66012;SDS011;52783;50.502;8.190;2023-07-24T11:05:40;4.22;;;3.40;;
66012;SDS011;52783;50.502;8.190;2023-07-24T11:08:11;5.28;;;3.38;;
66012;SDS011;52783;50.502;8.190;2023-07-24T11:10:43;6.78;;;3.60;;
66012;SDS011;52783;50.502;8.190;2023-07-24T11:13:16;7.43;;;3.85;;
66012;SDS011;52783;50.502;8.190;2023-07-24T11:15:43;9.82;;;3.47;;
66012;SDS011;52783;50.502;8.190;2023-07-24T11:18:09;5.63;;;4.15;;
66012;SDS011;52783;50.502;8.190;2023-07-24T11:20:36;6.75;;;4.30;;
66012;SDS011;52783;50.502;8.190;2023-07-24T11:23:07;5.50;;;3.72;;
66012;SDS011;52783;50.502;8.190;2023-07-24T11:25:33;5.72;;;4.05;;
66012;SDS011;52783;50.502;8.190;2023-07-24T11:27:59;7.68;;;4.15;;
66012;SDS011;52783;50.502;8.190;2023-07-24T11:30:25;6.53;;;3.88;;
66012;SDS011;52783;50.502;8.190;2023-07-24T11:32:50;5.15;;;3.97;;
66012;SDS011;52783;50.502;8.190;2023-07-24T11:35:17;8.85;;;4.00;;
66012;SDS011;52783;50.502;8.190;2023-07-24T11:37:44;9.18;;;4.13;;
66012;SDS011;52783;50.502;8.190;2023-07-24T11:40:09;8.13;;;3.90;;
66012;SDS011;52783;50.502;8.190;2023-07-24T11:42:38;7.32;;;3.70;;
66012;SDS011;52783;50.502;8.190;2023-07-24T11:45:04;5.90;;;4.10;;
66012;SDS011;52783;50.502;8.190;2023-07-24T11:47:30;6.95;;;3.88;;
66012;SDS011;52783;50.502;8.190;2023-07-24T11:49:57;8.50;;;3.90;;
66012;SDS011;52783;50.502;8.190;2023-07-24T11:52:24;8.38;;;3.78;;
66012;SDS011;52783;50.502;8.190;2023-07-24T11:54:56;10.25;;;4.07;;
66012;SDS011;52783;50.502;8.190;2023-07-24T11:57:28;7.57;;;4.07;;
66012;SDS011;52783;50.502;8.190;2023-07-24T11:59:54;6.50;;;3.75;;
66012;SDS011;52783;50.502;8.190;2023-07-24T12:02:22;7.82;;;4.30;;
66012;SDS011;52783;50.502;8.190;2023-07-24T12:04:53;6.40;;;3.60;;
66012;SDS011;52783;50.502;8.190;2023-07-24T12:07:28;6.50;;;3.88;;
66012;SDS011;52783;50.502;8.190;2023-07-24T12:09:56;7.75;;;3.70;;
66012;SDS011;52783;50.502;8.190;2023-07-24T12:12:21;7.60;;;3.95;;
66012;SDS011;52783;50.502;8.190;2023-07-24T12:14:47;7.78;;;3.47;;
66012;SDS011;52783;50.502;8.190;2023-07-24T12:17:16;6.63;;;3.92;;
66012;SDS011;52783;50.502;8.190;2023-07-24T12:19:43;6.65;;;3.55;;
66012;SDS011;52783;50.502;8.190;2023-07-24T12:22:09;7.60;;;4.07;;
66012;SDS011;52783;50.502;8.190;2023-07-24T12:24:34;6.43;;;3.72;;
66012;SDS011;52783;50.502;8.190;2023-07-24T12:27:00;6.50;;;3.47;;
66012;SDS011;52783;50.502;8.190;2023-07-24T12:29:25;5.72;;;3.70;;
66012;SDS011;52783;50.502;8.190;2023-07-24T12:31:51;6.13;;;3.70;;
66012;SDS011;52783;50.502;8.190;2023-07-24T12:34:16;10.27;;;4.03;;
66012;SDS011;52783;50.502;8.190;2023-07-24T12:36:42;6.95;;;3.70;;
66012;SDS011;52783;50.502;8.190;2023-07-24T12:39:08;5.05;;;3.50;;
66012;SDS011;52783;50.502;8.190;2023-07-24T12:41:34;9.00;;;4.00;;
66012;SDS011;52783;50.502;8.190;2023-07-24T12:43:59;10.60;;;3.47;;
66012;SDS011;52783;50.502;8.190;2023-07-24T12:46:25;5.25;;;3.50;;
66012;SDS011;52783;50.502;8.190;2023-07-24T12:48:50;4.50;;;3.40;;
66012;SDS011;52783;50.502;8.190;2023-07-24T12:51:16;5.05;;;3.08;;
66012;SDS011;52783;50.502;8.190;2023-07-24T12:53:41;4.60;;;2.95;;
66012;SDS011;52783;50.502;8.190;2023-07-24T12:56:07;8.43;;;3.10;;
66012;SDS011;52783;50.502;8.190;2023-07-24T12:58:32;4.75;;;3.25;;
66012;SDS011;52783;50.502;8.190;2023-07-24T13:00:57;9.23;;;3.40;;
66012;SDS011;52783;50.502;8.190;2023-07-24T13:03:23;10.73;;;4.00;;
66012;SDS011;52783;50.502;8.190;2023-07-24T13:05:49;10.85;;;3.80;;
66012;SDS011;52783;50.502;8.190;2023-07-24T13:08:14;6.70;;;3.70;;
66012;SDS011;52783;50.502;8.190;2023-07-24T13:10:40;7.10;;;3.83;;
66012;SDS011;52783;50.502;8.190;2023-07-24T13:13:05;9.18;;;4.05;;
66012;SDS011;52783;50.502;8.190;2023-07-24T13:15:31;9.00;;;4.30;;
66012;SDS011;52783;50.502;8.190;2023-07-24T13:17:57;12.43;;;5.13;;
66012;SDS011;52783;50.502;8.190;2023-07-24T13:20:24;38.35;;;6.90;;
66012;SDS011;52783;50.502;8.190;2023-07-24T13:22:49;28.02;;;5.38;;
66012;SDS011;52783;50.502;8.190;2023-07-24T13:25:15;10.45;;;3.83;;
66012;SDS011;52783;50.502;8.190;2023-07-24T13:27:41;10.80;;;4.40;;
66012;SDS011;52783;50.502;8.190;2023-07-24T13:30:06;5.53;;;3.55;;
66012;SDS011;52783;50.502;8.190;2023-07-24T13:32:32;7.95;;;3.58;;
66012;SDS011;52783;50.502;8.190;2023-07-24T13:34:58;9.18;;;3.92;;
66012;SDS011;52783;50.502;8.190;2023-07-24T13:37:24;6.35;;;3.53;;
66012;SDS011;52783;50.502;8.190;2023-07-24T13:39:51;5.68;;;3.63;;
66012;SDS011;52783;50.502;8.190;2023-07-24T13:42:16;8.07;;;3.78;;
66012;SDS011;52783;50.502;8.190;2023-07-24T13:44:44;8.50;;;3.45;;
66012;SDS011;52783;50.502;8.190;2023-07-24T13:47:10;6.25;;;3.47;;
66012;SDS011;52783;50.502;8.190;2023-07-24T13:49:35;7.65;;;3.05;;
66012;SDS011;52783;50.502;8.190;2023-07-24T13:52:01;6.40;;;3.20;;
66012;SDS011;52783;50.502;8.190;2023-07-24T13:54:26;4.97;;;3.20;;
66012;SDS011;52783;50.502;8.190;2023-07-24T13:56:52;5.28;;;3.00;;
66012;SDS011;52783;50.502;8.190;2023-07-24T13:59:17;6.40;;;3.70;;
66012;SDS011;52783;50.502;8.190;2023-07-24T14:01:43;6.00;;;3.20;;
66012;SDS011;52783;50.502;8.190;2023-07-24T14:04:09;5.78;;;3.00;;
66012;SDS011;52783;50.502;8.190;2023-07-24T14:06:37;7.07;;;3.70;;
66012;SDS011;52783;50.502;8.190;2023-07-24T14:09:02;7.18;;;3.35;;
66012;SDS011;52783;50.502;8.190;2023-07-24T14:11:28;3.90;;;3.20;;
66012;SDS011;52783;50.502;8.190;2023-07-24T14:13:54;3.72;;;3.15;;
66012;SDS011;52783;50.502;8.190;2023-07-24T14:16:19;4.40;;;3.00;;
66012;SDS011;52783;50.502;8.190;2023-07-24T14:18:45;4.93;;;2.70;;
66012;SDS011;52783;50.502;8.190;2023-07-24T14:21:10;2.80;;;2.30;;
66012;SDS011;52783;50.502;8.190;2023-07-24T14:23:36;2.35;;;1.95;;
66012;SDS011;52783;50.502;8.190;2023-07-24T14:26:02;5.30;;;2.00;;
66012;SDS011;52783;50.502;8.190;2023-07-24T14:28:28;2.20;;;2.00;;
66012;SDS011;52783;50.502;8.190;2023-07-24T14:30:53;4.65;;;2.03;;
66012;SDS011;52783;50.502;8.190;2023-07-24T14:33:19;4.05;;;1.90;;
66012;SDS011;52783;50.502;8.190;2023-07-24T14:35:45;2.33;;;1.63;;
66012;SDS011;52783;50.502;8.190;2023-07-24T14:38:10;2.47;;;1.73;;
66012;SDS011;52783;50.502;8.190;2023-07-24T14:40:36;5.40;;;1.52;;
66012;SDS011;52783;50.502;8.190;2023-07-24T14:43:01;3.70;;;1.67;;